Agua Nueva, Texas
Current Conditions -  °F | °C
As of 10:35 AM on Saturday 22 Nov 2014 (Local Time) from KHBV Reporting Station
Broken Clouds Broken Clouds  
Wind Chill: 24°   Ceiling: 2800
Heat Index: 24°   Visibility: 10mi
Dew Point: 18°   Wind: 13mph
Humidity: 71%   Direction: 160°SSE
Pressure: 29.94"   Gusts: 23mph
Location:  27.0695°N, 98.7494°W
Report Text: KHBV 221635Z AUTO 16011G20KT 10SM SCT020 BKN028 24/18 A2994 RMK AO2 LTG DSNT N T02360181
Loading
Personal Weather Stations






























Interactive Weather Map New forecast layout! Learn more

10-Day Weather Forecast

Advertisements
Track Severe Weather on mobile